sensor_id;sensor_type;location;lat;lon;timestamp;P1;durP1;ratioP1;P2;durP2;ratioP2
34711;SDS011;20941;42.408;25.634;2023-02-01T00:02:19;2.90;;;2.60;;
34711;SDS011;20941;42.408;25.634;2023-02-01T00:04:45;3.58;;;2.80;;
34711;SDS011;20941;42.408;25.634;2023-02-01T00:07:10;4.18;;;3.20;;
34711;SDS011;20941;42.408;25.634;2023-02-01T00:09:36;5.53;;;3.28;;
34711;SDS011;20941;42.408;25.634;2023-02-01T00:12:01;3.92;;;3.38;;
34711;SDS011;20941;42.408;25.634;2023-02-01T00:14:28;6.78;;;3.40;;
34711;SDS011;20941;42.408;25.634;2023-02-01T00:16:54;3.58;;;2.80;;
34711;SDS011;20941;42.408;25.634;2023-02-01T00:19:20;4.32;;;2.75;;
34711;SDS011;20941;42.408;25.634;2023-02-01T00:21:45;5.50;;;2.80;;
34711;SDS011;20941;42.408;25.634;2023-02-01T00:24:11;1.63;;;1.52;;
34711;SDS011;20941;42.408;25.634;2023-02-01T00:26:41;2.72;;;2.50;;
34711;SDS011;20941;42.408;25.634;2023-02-01T00:29:15;2.97;;;2.47;;
34711;SDS011;20941;42.408;25.634;2023-02-01T00:31:42;3.05;;;2.25;;
34711;SDS011;20941;42.408;25.634;2023-02-01T00:34:12;2.97;;;2.70;;
34711;SDS011;20941;42.408;25.634;2023-02-01T00:36:40;3.33;;;2.65;;
34711;SDS011;20941;42.408;25.634;2023-02-01T00:39:06;2.55;;;2.35;;
34711;SDS011;20941;42.408;25.634;2023-02-01T00:41:32;4.07;;;2.90;;
34711;SDS011;20941;42.408;25.634;2023-02-01T00:43:57;2.58;;;2.25;;
34711;SDS011;20941;42.408;25.634;2023-02-01T00:46:23;4.22;;;3.10;;
34711;SDS011;20941;42.408;25.634;2023-02-01T00:48:49;5.88;;;3.30;;
34711;SDS011;20941;42.408;25.634;2023-02-01T00:51:16;4.40;;;3.28;;
34711;SDS011;20941;42.408;25.634;2023-02-01T00:53:44;4.20;;;2.97;;
34711;SDS011;20941;42.408;25.634;2023-02-01T00:56:10;4.85;;;3.35;;
34711;SDS011;20941;42.408;25.634;2023-02-01T00:58:36;6.38;;;3.85;;
34711;SDS011;20941;42.408;25.634;2023-02-01T01:01:04;5.15;;;3.70;;
34711;SDS011;20941;42.408;25.634;2023-02-01T01:03:31;5.45;;;4.00;;
34711;SDS011;20941;42.408;25.634;2023-02-01T01:06:03;6.60;;;3.80;;
34711;SDS011;20941;42.408;25.634;2023-02-01T01:08:30;5.20;;;3.50;;
34711;SDS011;20941;42.408;25.634;2023-02-01T01:10:56;4.97;;;2.88;;
34711;SDS011;20941;42.408;25.634;2023-02-01T01:13:21;5.57;;;3.30;;
34711;SDS011;20941;42.408;25.634;2023-02-01T01:15:47;4.35;;;3.13;;
34711;SDS011;20941;42.408;25.634;2023-02-01T01:18:13;4.88;;;3.55;;
34711;SDS011;20941;42.408;25.634;2023-02-01T01:20:39;4.60;;;3.15;;
34711;SDS011;20941;42.408;25.634;2023-02-01T01:23:06;4.90;;;3.50;;
34711;SDS011;20941;42.408;25.634;2023-02-01T01:25:32;5.07;;;3.65;;
34711;SDS011;20941;42.408;25.634;2023-02-01T01:28:02;5.38;;;4.10;;
34711;SDS011;20941;42.408;25.634;2023-02-01T01:30:28;5.15;;;3.72;;
34711;SDS011;20941;42.408;25.634;2023-02-01T01:32:53;4.10;;;3.45;;
34711;SDS011;20941;42.408;25.634;2023-02-01T01:35:19;4.38;;;3.40;;
34711;SDS011;20941;42.408;25.634;2023-02-01T01:37:44;5.13;;;3.35;;
34711;SDS011;20941;42.408;25.634;2023-02-01T01:40:10;4.80;;;3.20;;
34711;SDS011;20941;42.408;25.634;2023-02-01T01:42:37;5.50;;;3.22;;
34711;SDS011;20941;42.408;25.634;2023-02-01T01:45:05;3.47;;;3.08;;
34711;SDS011;20941;42.408;25.634;2023-02-01T01:47:43;3.05;;;2.60;;
34711;SDS011;20941;42.408;25.634;2023-02-01T01:50:15;4.18;;;3.30;;
34711;SDS011;20941;42.408;25.634;2023-02-01T01:52:46;3.42;;;3.13;;
34711;SDS011;20941;42.408;25.634;2023-02-01T01:55:16;6.10;;;3.35;;
34711;SDS011;20941;42.408;25.634;2023-02-01T01:57:46;3.97;;;3.10;;
34711;SDS011;20941;42.408;25.634;2023-02-01T02:00:17;4.88;;;3.50;;
34711;SDS011;20941;42.408;25.634;2023-02-01T02:02:46;3.97;;;3.50;;
34711;SDS011;20941;42.408;25.634;2023-02-01T02:05:17;7.10;;;3.83;;
34711;SDS011;20941;42.408;25.634;2023-02-01T02:07:45;5.47;;;3.88;;
34711;SDS011;20941;42.408;25.634;2023-02-01T02:10:13;5.10;;;3.55;;
34711;SDS011;20941;42.408;25.634;2023-02-01T02:12:41;4.95;;;3.58;;
34711;SDS011;20941;42.408;25.634;2023-02-01T02:15:09;4.85;;;3.65;;
34711;SDS011;20941;42.408;25.634;2023-02-01T02:26:05;5.47;;;3.70;;
34711;SDS011;20941;42.408;25.634;2023-02-01T02:34:26;7.32;;;3.10;;
34711;SDS011;20941;42.408;25.634;2023-02-01T02:45:42;3.97;;;3.17;;
34711;SDS011;20941;42.408;25.634;2023-02-01T02:54:40;18.75;;;6.30;;
34711;SDS011;20941;42.408;25.634;2023-02-01T02:57:21;17.23;;;6.10;;
34711;SDS011;20941;42.408;25.634;2023-02-01T03:00:10;12.77;;;5.22;;
34711;SDS011;20941;42.408;25.634;2023-02-01T03:02:58;10.23;;;4.95;;
34711;SDS011;20941;42.408;25.634;2023-02-01T03:05:44;7.05;;;3.65;;
34711;SDS011;20941;42.408;25.634;2023-02-01T03:13:17;5.40;;;3.40;;
34711;SDS011;20941;42.408;25.634;2023-02-01T03:20:56;4.47;;;3.17;;
34711;SDS011;20941;42.408;25.634;2023-02-01T03:23:26;4.38;;;3.42;;
34711;SDS011;20941;42.408;25.634;2023-02-01T03:25:55;1.98;;;1.85;;
34711;SDS011;20941;42.408;25.634;2023-02-01T03:28:23;3.00;;;2.40;;
34711;SDS011;20941;42.408;25.634;2023-02-01T03:30:53;3.63;;;2.33;;
34711;SDS011;20941;42.408;25.634;2023-02-01T03:33:20;3.15;;;2.85;;
34711;SDS011;20941;42.408;25.634;2023-02-01T03:44:26;7.47;;;3.90;;
34711;SDS011;20941;42.408;25.634;2023-02-01T03:47:05;7.65;;;4.30;;
34711;SDS011;20941;42.408;25.634;2023-02-01T03:49:42;4.72;;;3.47;;
34711;SDS011;20941;42.408;25.634;2023-02-01T03:52:14;4.35;;;3.88;;
34711;SDS011;20941;42.408;25.634;2023-02-01T03:54:45;5.20;;;3.60;;
34711;SDS011;20941;42.408;25.634;2023-02-01T03:57:13;5.00;;;3.67;;
34711;SDS011;20941;42.408;25.634;2023-02-01T03:59:42;4.45;;;2.80;;
34711;SDS011;20941;42.408;25.634;2023-02-01T04:02:10;3.88;;;3.38;;
34711;SDS011;20941;42.408;25.634;2023-02-01T04:04:36;4.78;;;3.45;;
34711;SDS011;20941;42.408;25.634;2023-02-01T04:07:02;7.55;;;4.13;;
34711;SDS011;20941;42.408;25.634;2023-02-01T04:09:28;5.03;;;3.83;;
34711;SDS011;20941;42.408;25.634;2023-02-01T04:11:53;4.43;;;3.72;;
34711;SDS011;20941;42.408;25.634;2023-02-01T04:14:19;5.10;;;3.92;;
34711;SDS011;20941;42.408;25.634;2023-02-01T04:16:44;7.30;;;3.92;;
34711;SDS011;20941;42.408;25.634;2023-02-01T04:19:10;10.27;;;5.28;;
34711;SDS011;20941;42.408;25.634;2023-02-01T04:21:36;11.00;;;6.35;;
34711;SDS011;20941;42.408;25.634;2023-02-01T04:24:01;10.43;;;5.75;;
34711;SDS011;20941;42.408;25.634;2023-02-01T04:26:27;6.50;;;3.92;;
34711;SDS011;20941;42.408;25.634;2023-02-01T04:28:52;5.03;;;3.28;;
34711;SDS011;20941;42.408;25.634;2023-02-01T04:31:18;3.72;;;3.15;;
34711;SDS011;20941;42.408;25.634;2023-02-01T04:33:53;7.10;;;3.85;;
34711;SDS011;20941;42.408;25.634;2023-02-01T04:36:21;8.07;;;3.83;;
34711;SDS011;20941;42.408;25.634;2023-02-01T04:38:47;6.45;;;3.63;;
34711;SDS011;20941;42.408;25.634;2023-02-01T04:41:16;9.18;;;4.72;;
34711;SDS011;20941;42.408;25.634;2023-02-01T04:43:48;9.32;;;5.88;;
34711;SDS011;20941;42.408;25.634;2023-02-01T04:46:14;4.50;;;2.85;;
34711;SDS011;20941;42.408;25.634;2023-02-01T04:48:40;7.03;;;4.03;;
34711;SDS011;20941;42.408;25.634;2023-02-01T04:51:06;11.63;;;8.73;;
34711;SDS011;20941;42.408;25.634;2023-02-01T04:53:32;26.67;;;19.85;;
34711;SDS011;20941;42.408;25.634;2023-02-01T04:55:58;12.75;;;10.55;;
34711;SDS011;20941;42.408;25.634;2023-02-01T04:58:24;6.35;;;5.30;;
34711;SDS011;20941;42.408;25.634;2023-02-01T05:00:49;3.88;;;3.10;;
34711;SDS011;20941;42.408;25.634;2023-02-01T05:03:15;7.22;;;2.75;;
34711;SDS011;20941;42.408;25.634;2023-02-01T05:05:41;6.10;;;3.15;;
34711;SDS011;20941;42.408;25.634;2023-02-01T05:08:06;6.93;;;3.28;;
34711;SDS011;20941;42.408;25.634;2023-02-01T05:10:32;4.40;;;2.33;;
34711;SDS011;20941;42.408;25.634;2023-02-01T05:12:57;10.13;;;3.42;;
34711;SDS011;20941;42.408;25.634;2023-02-01T05:15:41;8.10;;;3.50;;
34711;SDS011;20941;42.408;25.634;2023-02-01T05:18:07;6.40;;;2.90;;
34711;SDS011;20941;42.408;25.634;2023-02-01T05:20:33;6.93;;;3.53;;
34711;SDS011;20941;42.408;25.634;2023-02-01T05:22:58;4.82;;;3.40;;
34711;SDS011;20941;42.408;25.634;2023-02-01T05:25:24;8.35;;;4.80;;
34711;SDS011;20941;42.408;25.634;2023-02-01T05:27:49;5.60;;;4.10;;
34711;SDS011;20941;42.408;25.634;2023-02-01T05:30:15;5.50;;;4.13;;
34711;SDS011;20941;42.408;25.634;2023-02-01T05:32:41;5.88;;;4.32;;
34711;SDS011;20941;42.408;25.634;2023-02-01T05:35:06;4.95;;;3.92;;
34711;SDS011;20941;42.408;25.634;2023-02-01T05:37:32;8.50;;;4.68;;
34711;SDS011;20941;42.408;25.634;2023-02-01T05:39:58;6.70;;;4.15;;
34711;SDS011;20941;42.408;25.634;2023-02-01T05:42:24;7.28;;;4.22;;
34711;SDS011;20941;42.408;25.634;2023-02-01T05:44:49;8.70;;;5.20;;
34711;SDS011;20941;42.408;25.634;2023-02-01T05:47:15;9.25;;;5.85;;
34711;SDS011;20941;42.408;25.634;2023-02-01T05:49:40;11.68;;;6.63;;
34711;SDS011;20941;42.408;25.634;2023-02-01T05:52:06;11.38;;;6.15;;
34711;SDS011;20941;42.408;25.634;2023-02-01T05:54:31;4.63;;;3.35;;
34711;SDS011;20941;42.408;25.634;2023-02-01T05:56:57;5.50;;;4.03;;
34711;SDS011;20941;42.408;25.634;2023-02-01T05:59:22;9.23;;;4.85;;
34711;SDS011;20941;42.408;25.634;2023-02-01T06:01:48;9.32;;;4.57;;
34711;SDS011;20941;42.408;25.634;2023-02-01T06:04:13;7.45;;;4.72;;
34711;SDS011;20941;42.408;25.634;2023-02-01T06:06:39;16.85;;;9.18;;
34711;SDS011;20941;42.408;25.634;2023-02-01T06:09:06;19.73;;;11.57;;
34711;SDS011;20941;42.408;25.634;2023-02-01T06:11:36;12.85;;;8.23;;
34711;SDS011;20941;42.408;25.634;2023-02-01T06:14:03;7.43;;;4.82;;
34711;SDS011;20941;42.408;25.634;2023-02-01T06:16:32;7.57;;;4.20;;
34711;SDS011;20941;42.408;25.634;2023-02-01T06:18:59;6.85;;;3.95;;
34711;SDS011;20941;42.408;25.634;2023-02-01T06:21:26;7.95;;;4.13;;
34711;SDS011;20941;42.408;25.634;2023-02-01T06:23:53;9.63;;;4.28;;
34711;SDS011;20941;42.408;25.634;2023-02-01T06:26:23;7.07;;;4.30;;
34711;SDS011;20941;42.408;25.634;2023-02-01T06:28:54;12.80;;;5.45;;
34711;SDS011;20941;42.408;25.634;2023-02-01T06:31:21;7.03;;;4.88;;
34711;SDS011;20941;42.408;25.634;2023-02-01T06:33:48;9.27;;;4.47;;
34711;SDS011;20941;42.408;25.634;2023-02-01T06:36:14;4.35;;;3.28;;
34711;SDS011;20941;42.408;25.634;2023-02-01T06:38:41;17.52;;;7.18;;
34711;SDS011;20941;42.408;25.634;2023-02-01T06:41:06;17.02;;;6.90;;
34711;SDS011;20941;42.408;25.634;2023-02-01T06:43:33;16.88;;;7.93;;
34711;SDS011;20941;42.408;25.634;2023-02-01T06:46:00;9.57;;;5.93;;
34711;SDS011;20941;42.408;25.634;2023-02-01T06:48:30;14.18;;;5.88;;
34711;SDS011;20941;42.408;25.634;2023-02-01T06:50:56;7.10;;;5.03;;
34711;SDS011;20941;42.408;25.634;2023-02-01T06:53:21;7.28;;;5.07;;
34711;SDS011;20941;42.408;25.634;2023-02-01T06:55:54;8.85;;;4.85;;
34711;SDS011;20941;42.408;25.634;2023-02-01T06:58:21;10.93;;;4.40;;
34711;SDS011;20941;42.408;25.634;2023-02-01T07:00:47;9.35;;;4.18;;
34711;SDS011;20941;42.408;25.634;2023-02-01T07:03:13;7.82;;;3.70;;
34711;SDS011;20941;42.408;25.634;2023-02-01T07:05:39;8.75;;;5.43;;
34711;SDS011;20941;42.408;25.634;2023-02-01T07:08:05;11.80;;;6.00;;
34711;SDS011;20941;42.408;25.634;2023-02-01T07:10:30;17.38;;;9.02;;
34711;SDS011;20941;42.408;25.634;2023-02-01T07:12:58;11.48;;;4.63;;
34711;SDS011;20941;42.408;25.634;2023-02-01T07:15:24;3.83;;;2.67;;
34711;SDS011;20941;42.408;25.634;2023-02-01T07:17:50;4.57;;;3.90;;
34711;SDS011;20941;42.408;25.634;2023-02-01T07:20:15;8.48;;;3.53;;
34711;SDS011;20941;42.408;25.634;2023-02-01T07:22:41;6.32;;;4.50;;
34711;SDS011;20941;42.408;25.634;2023-02-01T07:25:07;5.13;;;3.47;;
34711;SDS011;20941;42.408;25.634;2023-02-01T07:27:37;6.38;;;4.03;;
34711;SDS011;20941;42.408;25.634;2023-02-01T07:30:03;9.68;;;6.53;;
34711;SDS011;20941;42.408;25.634;2023-02-01T07:32:30;6.65;;;4.53;;
34711;SDS011;20941;42.408;25.634;2023-02-01T07:34:56;8.20;;;3.80;;
34711;SDS011;20941;42.408;25.634;2023-02-01T07:37:22;6.85;;;3.65;;
34711;SDS011;20941;42.408;25.634;2023-02-01T07:39:49;6.25;;;3.33;;
34711;SDS011;20941;42.408;25.634;2023-02-01T07:42:16;7.82;;;3.28;;
34711;SDS011;20941;42.408;25.634;2023-02-01T07:44:41;5.20;;;3.08;;
34711;SDS011;20941;42.408;25.634;2023-02-01T07:47:07;7.78;;;3.30;;
34711;SDS011;20941;42.408;25.634;2023-02-01T07:49:32;8.98;;;3.30;;
34711;SDS011;20941;42.408;25.634;2023-02-01T07:51:58;4.65;;;2.80;;
34711;SDS011;20941;42.408;25.634;2023-02-01T07:54:23;5.25;;;2.78;;
34711;SDS011;20941;42.408;25.634;2023-02-01T07:56:49;5.78;;;2.92;;
34711;SDS011;20941;42.408;25.634;2023-02-01T07:59:14;4.65;;;3.30;;
34711;SDS011;20941;42.408;25.634;2023-02-01T08:01:41;6.15;;;3.58;;
34711;SDS011;20941;42.408;25.634;2023-02-01T08:04:07;4.75;;;3.40;;
34711;SDS011;20941;42.408;25.634;2023-02-01T08:06:35;5.45;;;2.85;;
34711;SDS011;20941;42.408;25.634;2023-02-01T08:09:02;2.15;;;1.95;;
34711;SDS011;20941;42.408;25.634;2023-02-01T08:11:28;7.68;;;4.00;;
34711;SDS011;20941;42.408;25.634;2023-02-01T08:13:55;5.03;;;2.95;;
34711;SDS011;20941;42.408;25.634;2023-02-01T08:16:20;2.78;;;1.88;;
34711;SDS011;20941;42.408;25.634;2023-02-01T08:18:48;3.35;;;2.35;;
34711;SDS011;20941;42.408;25.634;2023-02-01T08:21:14;6.65;;;3.60;;
34711;SDS011;20941;42.408;25.634;2023-02-01T08:23:42;4.53;;;2.75;;
34711;SDS011;20941;42.408;25.634;2023-02-01T08:26:15;4.50;;;2.53;;
34711;SDS011;20941;42.408;25.634;2023-02-01T08:28:43;2.13;;;1.83;;
34711;SDS011;20941;42.408;25.634;2023-02-01T08:31:12;3.15;;;2.33;;
34711;SDS011;20941;42.408;25.634;2023-02-01T08:33:42;15.48;;;6.22;;
34711;SDS011;20941;42.408;25.634;2023-02-01T08:36:09;11.02;;;6.30;;
34711;SDS011;20941;42.408;25.634;2023-02-01T08:38:36;6.00;;;3.22;;
34711;SDS011;20941;42.408;25.634;2023-02-01T08:41:05;12.30;;;6.25;;
34711;SDS011;20941;42.408;25.634;2023-02-01T08:43:34;5.70;;;2.50;;
34711;SDS011;20941;42.408;25.634;2023-02-01T08:46:00;8.77;;;4.05;;
34711;SDS011;20941;42.408;25.634;2023-02-01T08:48:26;7.55;;;3.20;;
34711;SDS011;20941;42.408;25.634;2023-02-01T08:51:11;3.40;;;2.40;;
34711;SDS011;20941;42.408;25.634;2023-02-01T08:53:39;4.57;;;3.10;;
34711;SDS011;20941;42.408;25.634;2023-02-01T08:56:06;8.85;;;3.72;;
34711;SDS011;20941;42.408;25.634;2023-02-01T08:58:32;9.13;;;3.67;;
34711;SDS011;20941;42.408;25.634;2023-02-01T09:01:02;4.47;;;2.90;;
34711;SDS011;20941;42.408;25.634;2023-02-01T09:03:31;9.05;;;3.53;;
34711;SDS011;20941;42.408;25.634;2023-02-01T09:06:04;7.53;;;3.50;;
34711;SDS011;20941;42.408;25.634;2023-02-01T09:08:34;5.35;;;3.83;;
34711;SDS011;20941;42.408;25.634;2023-02-01T09:11:04;5.43;;;2.85;;
34711;SDS011;20941;42.408;25.634;2023-02-01T09:13:36;6.05;;;3.85;;
34711;SDS011;20941;42.408;25.634;2023-02-01T09:16:02;9.25;;;5.28;;
34711;SDS011;20941;42.408;25.634;2023-02-01T09:18:28;6.78;;;3.53;;
34711;SDS011;20941;42.408;25.634;2023-02-01T09:20:54;6.95;;;4.22;;
34711;SDS011;20941;42.408;25.634;2023-02-01T09:23:20;7.53;;;4.25;;
34711;SDS011;20941;42.408;25.634;2023-02-01T09:25:45;9.52;;;5.13;;
34711;SDS011;20941;42.408;25.634;2023-02-01T09:28:13;14.60;;;8.25;;
34711;SDS011;20941;42.408;25.634;2023-02-01T09:30:39;18.27;;;6.88;;
34711;SDS011;20941;42.408;25.634;2023-02-01T09:33:04;11.00;;;5.38;;
34711;SDS011;20941;42.408;25.634;2023-02-01T09:35:30;12.95;;;5.28;;
34711;SDS011;20941;42.408;25.634;2023-02-01T09:37:55;5.25;;;3.38;;
34711;SDS011;20941;42.408;25.634;2023-02-01T09:40:21;9.68;;;5.47;;
34711;SDS011;20941;42.408;25.634;2023-02-01T09:42:54;6.63;;;3.90;;
34711;SDS011;20941;42.408;25.634;2023-02-01T09:48:17;37.33;;;11.85;;
34711;SDS011;20941;42.408;25.634;2023-02-01T09:50:50;54.60;;;17.35;;
34711;SDS011;20941;42.408;25.634;2023-02-01T09:56:20;22.92;;;9.35;;
34711;SDS011;20941;42.408;25.634;2023-02-01T09:58:51;13.95;;;5.95;;
34711;SDS011;20941;42.408;25.634;2023-02-01T10:01:24;15.27;;;6.63;;
34711;SDS011;20941;42.408;25.634;2023-02-01T10:03:54;11.60;;;5.75;;
34711;SDS011;20941;42.408;25.634;2023-02-01T10:16:56;5.40;;;3.08;;
34711;SDS011;20941;42.408;25.634;2023-02-01T10:19:28;4.80;;;3.20;;
34711;SDS011;20941;42.408;25.634;2023-02-01T10:24:54;6.88;;;3.28;;
34711;SDS011;20941;42.408;25.634;2023-02-01T10:27:33;2.97;;;2.58;;
34711;SDS011;20941;42.408;25.634;2023-02-01T10:32:55;5.40;;;3.70;;
34711;SDS011;20941;42.408;25.634;2023-02-01T10:35:28;4.22;;;3.13;;
34711;SDS011;20941;42.408;25.634;2023-02-01T10:38:00;6.47;;;3.90;;
34711;SDS011;20941;42.408;25.634;2023-02-01T10:40:29;8.88;;;4.75;;
34711;SDS011;20941;42.408;25.634;2023-02-01T10:42:58;6.32;;;4.05;;
34711;SDS011;20941;42.408;25.634;2023-02-01T10:45:30;5.03;;;3.40;;
34711;SDS011;20941;42.408;25.634;2023-02-01T10:47:59;10.98;;;5.00;;
34711;SDS011;20941;42.408;25.634;2023-02-01T10:58:16;3.90;;;2.75;;
34711;SDS011;20941;42.408;25.634;2023-02-01T11:00:52;4.65;;;2.45;;
34711;SDS011;20941;42.408;25.634;2023-02-01T11:06:26;4.82;;;2.95;;
34711;SDS011;20941;42.408;25.634;2023-02-01T11:08:55;8.45;;;3.67;;
34711;SDS011;20941;42.408;25.634;2023-02-01T11:11:22;6.85;;;2.88;;
34711;SDS011;20941;42.408;25.634;2023-02-01T11:13:56;6.45;;;3.15;;
34711;SDS011;20941;42.408;25.634;2023-02-01T11:16:28;5.90;;;3.33;;
34711;SDS011;20941;42.408;25.634;2023-02-01T11:19:01;9.23;;;4.30;;
34711;SDS011;20941;42.408;25.634;2023-02-01T11:21:29;6.55;;;3.33;;
34711;SDS011;20941;42.408;25.634;2023-02-01T11:23:54;4.72;;;2.88;;
34711;SDS011;20941;42.408;25.634;2023-02-01T11:26:25;8.48;;;3.75;;
34711;SDS011;20941;42.408;25.634;2023-02-01T11:31:35;7.57;;;2.78;;
34711;SDS011;20941;42.408;25.634;2023-02-01T11:34:20;5.55;;;2.60;;
34711;SDS011;20941;42.408;25.634;2023-02-01T11:36:49;4.82;;;2.80;;
34711;SDS011;20941;42.408;25.634;2023-02-01T11:39:25;5.30;;;3.17;;
34711;SDS011;20941;42.408;25.634;2023-02-01T11:44:38;5.35;;;2.67;;
34711;SDS011;20941;42.408;25.634;2023-02-01T11:50:05;3.88;;;3.13;;
34711;SDS011;20941;42.408;25.634;2023-02-01T11:53:03;7.47;;;3.60;;
34711;SDS011;20941;42.408;25.634;2023-02-01T11:55:39;5.90;;;3.67;;
34711;SDS011;20941;42.408;25.634;2023-02-01T12:12:38;3.42;;;3.10;;
34711;SDS011;20941;42.408;25.634;2023-02-01T12:20:40;9.18;;;3.45;;
34711;SDS011;20941;42.408;25.634;2023-02-01T12:42:42;3.05;;;2.08;;
34711;SDS011;20941;42.408;25.634;2023-02-01T12:48:03;7.53;;;2.55;;
34711;SDS011;20941;42.408;25.634;2023-02-01T12:50:45;2.78;;;1.25;;
34711;SDS011;20941;42.408;25.634;2023-02-01T12:55:56;2.13;;;1.50;;
34711;SDS011;20941;42.408;25.634;2023-02-01T13:04:31;3.47;;;1.70;;
34711;SDS011;20941;42.408;25.634;2023-02-01T13:07:04;2.55;;;0.75;;
34711;SDS011;20941;42.408;25.634;2023-02-01T13:09:41;7.30;;;1.42;;
34711;SDS011;20941;42.408;25.634;2023-02-01T13:13:19;1.38;;;1.27;;
34711;SDS011;20941;42.408;25.634;2023-02-01T13:15:30;4.07;;;1.75;;
34711;SDS011;20941;42.408;25.634;2023-02-01T13:18:19;3.50;;;2.08;;
34711;SDS011;20941;42.408;25.634;2023-02-01T13:23:52;2.97;;;1.73;;
34711;SDS011;20941;42.408;25.634;2023-02-01T13:26:18;1.98;;;1.77;;
34711;SDS011;20941;42.408;25.634;2023-02-01T13:28:45;5.72;;;3.10;;
34711;SDS011;20941;42.408;25.634;2023-02-01T13:42:41;11.07;;;2.53;;
34711;SDS011;20941;42.408;25.634;2023-02-01T13:45:15;9.38;;;2.90;;
34711;SDS011;20941;42.408;25.634;2023-02-01T13:47:46;6.63;;;2.53;;
34711;SDS011;20941;42.408;25.634;2023-02-01T13:50:22;3.95;;;1.48;;
34711;SDS011;20941;42.408;25.634;2023-02-01T13:53:34;2.25;;;1.40;;
34711;SDS011;20941;42.408;25.634;2023-02-01T13:58:34;6.18;;;2.47;;
34711;SDS011;20941;42.408;25.634;2023-02-01T14:09:10;2.47;;;1.65;;
34711;SDS011;20941;42.408;25.634;2023-02-01T14:16:38;17.67;;;3.95;;
34711;SDS011;20941;42.408;25.634;2023-02-01T14:19:06;11.98;;;2.58;;
34711;SDS011;20941;42.408;25.634;2023-02-01T14:21:35;9.10;;;3.42;;
34711;SDS011;20941;42.408;25.634;2023-02-01T14:26:53;1.90;;;1.40;;
34711;SDS011;20941;42.408;25.634;2023-02-01T14:29:30;6.53;;;2.50;;
34711;SDS011;20941;42.408;25.634;2023-02-01T14:44:47;8.52;;;4.43;;
34711;SDS011;20941;42.408;25.634;2023-02-01T14:52:22;12.23;;;3.73;;
34711;SDS011;20941;42.408;25.634;2023-02-01T14:54:55;6.90;;;3.90;;
34711;SDS011;20941;42.408;25.634;2023-02-01T14:57:26;8.02;;;3.53;;
34711;SDS011;20941;42.408;25.634;2023-02-01T15:00:14;13.18;;;4.82;;
34711;SDS011;20941;42.408;25.634;2023-02-01T15:02:47;7.43;;;4.10;;
34711;SDS011;20941;42.408;25.634;2023-02-01T15:05:24;24.17;;;6.88;;
34711;SDS011;20941;42.408;25.634;2023-02-01T15:07:54;26.02;;;7.65;;
34711;SDS011;20941;42.408;25.634;2023-02-01T15:10:21;23.83;;;7.95;;
34711;SDS011;20941;42.408;25.634;2023-02-01T15:12:48;17.95;;;8.48;;
34711;SDS011;20941;42.408;25.634;2023-02-01T15:17:52;14.25;;;7.10;;
34711;SDS011;20941;42.408;25.634;2023-02-01T15:20:23;18.92;;;8.23;;
34711;SDS011;20941;42.408;25.634;2023-02-01T15:22:57;26.83;;;8.38;;
34711;SDS011;20941;42.408;25.634;2023-02-01T15:25:38;27.00;;;9.27;;
34711;SDS011;20941;42.408;25.634;2023-02-01T15:28:04;27.98;;;12.05;;
34711;SDS011;20941;42.408;25.634;2023-02-01T15:30:34;34.25;;;14.40;;
34711;SDS011;20941;42.408;25.634;2023-02-01T15:33:13;38.08;;;13.15;;
34711;SDS011;20941;42.408;25.634;2023-02-01T15:35:41;31.40;;;13.27;;
34711;SDS011;20941;42.408;25.634;2023-02-01T15:43:49;41.55;;;15.57;;
34711;SDS011;20941;42.408;25.634;2023-02-01T15:46:31;43.88;;;17.52;;
34711;SDS011;20941;42.408;25.634;2023-02-01T15:49:29;26.38;;;10.90;;
34711;SDS011;20941;42.408;25.634;2023-02-01T15:51:58;22.30;;;10.10;;
34711;SDS011;20941;42.408;25.634;2023-02-01T15:54:26;18.48;;;8.13;;
34711;SDS011;20941;42.408;25.634;2023-02-01T15:56:56;4.38;;;2.95;;
34711;SDS011;20941;42.408;25.634;2023-02-01T15:59:29;4.47;;;3.00;;
34711;SDS011;20941;42.408;25.634;2023-02-01T16:02:02;3.97;;;1.77;;
34711;SDS011;20941;42.408;25.634;2023-02-01T16:04:28;2.80;;;1.83;;
34711;SDS011;20941;42.408;25.634;2023-02-01T16:07:02;4.57;;;1.90;;
34711;SDS011;20941;42.408;25.634;2023-02-01T16:09:38;4.75;;;2.70;;
34711;SDS011;20941;42.408;25.634;2023-02-01T16:12:28;6.60;;;2.83;;
34711;SDS011;20941;42.408;25.634;2023-02-01T16:15:06;9.88;;;4.88;;
34711;SDS011;20941;42.408;25.634;2023-02-01T16:17:32;12.52;;;5.82;;
34711;SDS011;20941;42.408;25.634;2023-02-01T16:19:57;10.48;;;4.32;;
34711;SDS011;20941;42.408;25.634;2023-02-01T16:22:23;8.70;;;3.67;;
34711;SDS011;20941;42.408;25.634;2023-02-01T16:24:49;8.88;;;2.83;;
34711;SDS011;20941;42.408;25.634;2023-02-01T16:27:15;6.85;;;3.15;;
34711;SDS011;20941;42.408;25.634;2023-02-01T16:29:41;10.20;;;4.30;;
34711;SDS011;20941;42.408;25.634;2023-02-01T16:32:08;8.23;;;5.05;;
34711;SDS011;20941;42.408;25.634;2023-02-01T16:34:47;11.27;;;5.93;;
34711;SDS011;20941;42.408;25.634;2023-02-01T16:37:15;10.93;;;6.90;;
34711;SDS011;20941;42.408;25.634;2023-02-01T16:39:44;14.40;;;7.18;;
34711;SDS011;20941;42.408;25.634;2023-02-01T16:42:11;17.65;;;8.38;;
34711;SDS011;20941;42.408;25.634;2023-02-01T16:44:38;25.35;;;8.43;;
34711;SDS011;20941;42.408;25.634;2023-02-01T16:47:08;19.27;;;7.55;;
34711;SDS011;20941;42.408;25.634;2023-02-01T16:49:38;19.17;;;7.60;;
34711;SDS011;20941;42.408;25.634;2023-02-01T16:52:06;13.43;;;7.47;;
34711;SDS011;20941;42.408;25.634;2023-02-01T16:54:39;13.00;;;6.50;;
34711;SDS011;20941;42.408;25.634;2023-02-01T16:57:07;22.40;;;6.97;;
34711;SDS011;20941;42.408;25.634;2023-02-01T16:59:36;17.85;;;5.93;;
34711;SDS011;20941;42.408;25.634;2023-02-01T17:02:02;14.40;;;7.90;;
34711;SDS011;20941;42.408;25.634;2023-02-01T17:04:27;8.23;;;4.00;;
34711;SDS011;20941;42.408;25.634;2023-02-01T17:06:53;7.50;;;4.43;;
34711;SDS011;20941;42.408;25.634;2023-02-01T17:09:19;11.40;;;5.18;;
34711;SDS011;20941;42.408;25.634;2023-02-01T17:11:45;13.32;;;6.38;;
34711;SDS011;20941;42.408;25.634;2023-02-01T17:14:15;23.33;;;8.27;;
34711;SDS011;20941;42.408;25.634;2023-02-01T17:16:43;15.38;;;7.15;;
34711;SDS011;20941;42.408;25.634;2023-02-01T17:19:14;22.25;;;7.68;;
34711;SDS011;20941;42.408;25.634;2023-02-01T17:21:52;26.77;;;7.38;;
34711;SDS011;20941;42.408;25.634;2023-02-01T17:24:22;15.50;;;6.20;;
34711;SDS011;20941;42.408;25.634;2023-02-01T17:26:50;19.27;;;7.10;;
34711;SDS011;20941;42.408;25.634;2023-02-01T17:29:16;20.17;;;7.72;;
34711;SDS011;20941;42.408;25.634;2023-02-01T17:31:43;19.45;;;8.10;;
34711;SDS011;20941;42.408;25.634;2023-02-01T17:34:11;18.75;;;8.02;;
34711;SDS011;20941;42.408;25.634;2023-02-01T17:36:42;17.13;;;8.10;;
34711;SDS011;20941;42.408;25.634;2023-02-01T17:39:08;17.83;;;7.63;;
34711;SDS011;20941;42.408;25.634;2023-02-01T17:41:35;23.27;;;9.90;;
34711;SDS011;20941;42.408;25.634;2023-02-01T17:44:02;22.23;;;10.32;;
34711;SDS011;20941;42.408;25.634;2023-02-01T17:46:29;19.10;;;7.20;;
34711;SDS011;20941;42.408;25.634;2023-02-01T17:48:56;10.02;;;5.57;;
34711;SDS011;20941;42.408;25.634;2023-02-01T17:51:22;10.30;;;4.00;;
34711;SDS011;20941;42.408;25.634;2023-02-01T17:53:52;8.52;;;4.20;;
34711;SDS011;20941;42.408;25.634;2023-02-01T17:56:19;9.77;;;3.72;;
34711;SDS011;20941;42.408;25.634;2023-02-01T17:58:47;7.63;;;3.88;;
34711;SDS011;20941;42.408;25.634;2023-02-01T18:01:14;7.95;;;3.85;;
34711;SDS011;20941;42.408;25.634;2023-02-01T18:03:47;6.65;;;3.92;;